EET,Max TemperatureF,Mean TemperatureF,Min TemperatureF,Max Dew PointF,MeanDew PointF,Min DewpointF,Max Humidity, Mean Humidity, Min Humidity, Max Sea Level PressureIn, Mean Sea Level PressureIn, Min Sea Level PressureIn, Max VisibilityMiles, Mean VisibilityMiles, Min VisibilityMiles, Max Wind SpeedMPH, Mean Wind SpeedMPH, Max Gust SpeedMPH,PrecipitationIn, CloudCover, Events, WindDirDegrees
2013-1-1,57,50,42,46,43,41,93,73,63,30.15,30.11,30.09,6,6,6,18,11,,0.00,4,,339
2013-1-2,59,50,41,48,43,37,93,80,59,30.33,30.23,30.15,6,6,6,5,1,,0.00,1,,159
2013-1-3,62,52,41,46,43,37,93,74,52,30.42,30.38,30.33,6,6,6,8,1,,0.00,3,,310
2013-1-4,60,51,42,39,36,28,81,59,29,30.33,30.18,30.06,6,6,6,9,4,,0.00,4,,318
2013-1-5,57,50,41,41,35,28,81,56,33,30.06,29.92,29.80,6,6,6,9,3,,0.00,5,,331
2013-1-6,50,46,42,39,36,32,81,69,58,29.92,29.82,29.71,6,6,5,28,13,46,0.00,4,,333
2013-1-7,51,43,35,32,27,21,70,51,30,29.98,29.92,29.86,6,6,6,30,8,46,0.00,3,,349
2013-1-8,42,38,33,32,27,19,87,68,46,30.21,30.17,30.01,6,6,2,22,13,36,0.00,4,Snow,333
2013-1-9,46,40,33,30,24,18,75,55,40,30.27,30.20,30.18,6,6,6,12,5,,0.00,3,,324
2013-1-10,51,42,32,36,30,21,81,64,35,30.18,30.12,30.04,6,6,6,7,3,,0.00,3,,352
2013-1-11,62,52,42,52,45,36,100,78,52,30.04,29.88,29.83,6,6,4,6,3,,0.00,4,Rain,278
2013-1-12,59,50,41,46,42,39,93,74,55,30.04,29.90,29.83,6,6,6,15,3,,0.00,2,,317
2013-1-13,59,49,39,41,39,36,87,69,42,30.24,30.16,30.04,6,6,6,7,3,,0.00,2,,2
2013-1-14,59,52,44,50,45,41,93,79,67,30.30,30.26,30.24,6,6,6,7,2,,0.00,5,,130
2013-1-15,60,52,44,52,48,43,94,79,63,30.27,30.16,30.01,6,6,6,18,4,31,0.00,4,Rain,161
2013-1-16,59,54,50,54,48,41,100,76,55,30.01,29.81,29.68,6,6,2,24,12,37,0.00,4,Rain-Thunderstorm,173
2013-1-17,59,50,42,50,45,39,93,75,59,29.80,29.73,29.65,6,6,5,8,1,,0.00,5,Rain,201
2013-1-18,59,52,42,50,45,37,88,73,54,29.62,29.51,29.47,6,6,5,17,9,,0.00,5,Rain,205
2013-1-19,57,48,39,39,36,32,93,62,41,29.86,29.71,29.53,6,6,6,17,5,29,0.00,3,,265
2013-1-20,64,53,42,54,46,37,88,76,49,29.95,29.91,29.86,6,6,6,9,0,,0.00,3,,155
2013-1-21,64,58,51,54,51,46,94,76,52,29.89,29.76,29.68,6,6,6,17,6,30,0.00,4,,152
2013-1-22,62,53,44,50,46,43,94,76,52,29.83,29.75,29.68,6,6,6,6,2,,0.00,3,Rain,276
2013-1-23,60,53,46,48,40,37,88,62,42,29.98,29.92,29.80,6,6,6,14,3,23,0.00,5,,273
2013-1-24,62,53,44,52,47,41,93,81,68,29.95,29.74,29.62,6,6,3,23,6,36,0.00,6,Rain-Thunderstorm,168
2013-1-25,59,49,39,50,44,37,100,84,59,29.77,29.59,29.50,6,6,1,21,4,23,0.00,5,Rain-Thunderstorm,173
2013-1-26,57,50,42,46,44,41,93,80,59,29.68,29.51,29.44,6,6,5,16,4,26,0.00,6,Rain,333
2013-1-27,53,50,46,41,40,39,81,71,58,29.95,29.85,29.68,6,6,6,15,8,,0.00,6,,329
2013-1-28,57,50,42,43,41,37,93,74,58,30.01,29.95,29.89,6,6,6,10,2,,0.00,4,Rain,240
2013-1-29,51,48,42,43,40,36,82,72,62,30.09,30.07,30.01,6,6,6,12,6,,0.00,6,,339
2013-1-30,59,49,39,39,34,27,81,57,29,30.09,30.02,29.95,6,6,6,9,4,,0.00,2,,338
2013-1-31,62,50,39,45,38,30,81,60,44,30.01,29.93,29.83,6,6,6,18,3,33,0.00,4,,351